Time;durP1;ratioP1;P1;durP2;ratioP2;P2;SDS_P1;SDS_P2;PMS_P1;PMS_P2;Temp;Humidity;BMP_temperature;BMP_pressure;BME280_temperature;BME280_humidity;BME280_pressure;Samples;Min_cycle;Max_cycle;Signal;HPM_P1;HPM_P2
2021/03/11 13:17:33;;;;;;;3.67;2.05;;;16.80;48.40;;;;;;5093417;28;20421;-60
2021/03/11 13:19:58;;;;;;;2.72;0.65;;;16.80;43.90;;;;;;5079637;28;20040;-60
2021/03/11 13:22:24;;;;;;;1.60;0.63;;;16.60;44.70;;;;;;5081310;28;20029;-60
2021/03/11 13:24:49;;;;;;;3.60;0.70;;;16.50;44.50;;;;;;5080056;28;20029;-61
2021/03/11 13:27:15;;;;;;;1.05;0.60;;;16.40;44.40;;;;;;5079520;28;20078;-61
2021/03/11 13:29:40;;;;;;;2.28;0.70;;;16.40;45.30;;;;;;5079867;28;20037;-61
2021/03/11 13:32:06;;;;;;;2.67;0.60;;;16.30;43.70;;;;;;5079615;28;20324;-61
2021/03/11 13:34:32;;;;;;;1.25;0.70;;;16.30;44.50;;;;;;5080966;28;20098;-61
2021/03/11 13:36:57;;;;;;;2.25;0.70;;;16.20;44.40;;;;;;5079445;28;20037;-60
2021/03/11 13:39:23;;;;;;;1.23;0.65;;;16.20;45.20;;;;;;5079433;28;20036;-62
2021/03/11 13:41:48;;;;;;;0.98;0.60;;;16.20;45.60;;;;;;5070136;28;20045;-61
2021/03/11 13:44:14;;;;;;;1.20;0.75;;;16.40;45.30;;;;;;5059268;28;20025;-61
2021/03/11 13:46:40;;;;;;;1.67;0.70;;;16.30;45.10;;;;;;5060866;28;20068;-62
2021/03/11 13:49:06;;;;;;;3.25;0.90;;;16.40;44.50;;;;;;5059478;28;20099;-61
2021/03/11 13:51:32;;;;;;;3.38;0.80;;;16.50;44.70;;;;;;5074857;28;20040;-61
2021/03/11 13:53:57;;;;;;;2.05;0.77;;;16.60;44.20;;;;;;5079439;28;20060;-64
2021/03/11 13:56:23;;;;;;;1.25;0.70;;;16.60;43.60;;;;;;5078883;28;20040;-62
2021/03/11 13:58:49;;;;;;;2.72;0.68;;;16.60;43.60;;;;;;5079424;28;20028;-61
2021/03/11 14:01:17;;;;;;;2.50;0.80;;;16.50;44.30;;;;;;5080521;28;20254;-61
2021/03/11 14:03:42;;;;;;;2.08;0.80;;;16.70;44.80;;;;;;5079293;28;20281;-61
2021/03/11 14:06:08;;;;;;;2.53;0.75;;;16.60;43.80;;;;;;5078869;28;20036;-61
2021/03/11 14:08:33;;;;;;;2.67;0.70;;;16.60;44.00;;;;;;5078711;28;20032;-61
2021/03/11 14:10:59;;;;;;;3.58;0.80;;;16.50;43.70;;;;;;5078630;28;20056;-60
2021/03/11 14:13:24;;;;;;;2.83;0.65;;;16.50;44.80;;;;;;5080186;28;20205;-61
2021/03/11 14:15:50;;;;;;;2.25;0.70;;;16.50;44.40;;;;;;5060758;28;20375;-59
2021/03/11 14:18:15;;;;;;;2.40;0.75;;;16.50;43.70;;;;;;5058788;28;20037;-60
2021/03/11 14:20:41;;;;;;;2.78;0.70;;;16.50;44.40;;;;;;5067077;28;20056;-59
2021/03/11 14:23:06;;;;;;;1.40;0.65;;;16.40;43.90;;;;;;5078267;28;20224;-60
2021/03/11 14:25:32;;;;;;;1.50;0.70;;;16.40;44.70;;;;;;5080194;28;20036;-60
2021/03/11 14:27:57;;;;;;;2.80;0.80;;;16.30;44.30;;;;;;5070828;28;20063;-59
2021/03/11 14:30:25;;;;;;;3.83;0.80;;;16.30;45.00;;;;;;5065323;28;20037;-59
2021/03/11 14:32:50;;;;;;;2.35;0.70;;;16.20;45.30;;;;;;5080312;28;20041;-59
2021/03/11 14:35:16;;;;;;;4.07;0.85;;;16.10;45.30;;;;;;5065114;28;20041;-59
2021/03/11 14:37:42;;;;;;;1.13;0.70;;;16.10;45.00;;;;;;5065027;28;20025;-60
2021/03/11 14:40:08;;;;;;;6.47;0.85;;;16.00;45.20;;;;;;5066871;28;20312;-59
2021/03/11 14:42:33;;;;;;;4.88;0.98;;;15.90;45.80;;;;;;5064957;28;20044;-59
2021/03/11 14:44:59;;;;;;;2.00;0.70;;;15.80;45.60;;;;;;5064844;28;20275;-59
2021/03/11 14:47:24;;;;;;;2.58;0.77;;;15.80;46.00;;;;;;5064883;28;20039;-59
2021/03/11 14:49:50;;;;;;;3.67;0.70;;;15.80;46.40;;;;;;5064735;28;20033;-59
2021/03/11 14:52:15;;;;;;;1.83;0.80;;;15.70;46.70;;;;;;5066146;28;20021;-59
2021/03/11 14:54:41;;;;;;;1.63;0.80;;;15.70;46.30;;;;;;5065254;28;20029;-59
2021/03/11 14:57:06;;;;;;;1.90;0.80;;;15.70;46.10;;;;;;5064821;28;20045;-59
2021/03/11 14:59:32;;;;;;;1.95;0.82;;;15.60;47.20;;;;;;5064214;28;20040;-59
2021/03/11 15:01:58;;;;;;;2.30;0.90;;;15.60;46.70;;;;;;5064649;28;20082;-59
2021/03/11 15:04:23;;;;;;;23.33;2.17;;;15.60;47.00;;;;;;5066042;28;20025;-59
2021/03/11 15:06:50;;;;;;;2.00;0.80;;;15.60;46.60;;;;;;5064908;28;20044;-59
2021/03/11 15:09:15;;;;;;;5.20;0.90;;;15.60;46.90;;;;;;5064121;28;20037;-61
2021/03/11 15:11:41;;;;;;;0.95;0.70;;;15.60;47.90;;;;;;5064544;28;20086;-59
2021/03/11 15:14:07;;;;;;;1.83;0.73;;;15.60;48.20;;;;;;5064561;28;20040;-60
2021/03/11 15:16:32;;;;;;;1.58;0.70;;;15.60;46.90;;;;;;5065655;28;20044;-59
2021/03/11 15:18:58;;;;;;;8.90;0.85;;;15.70;47.40;;;;;;5064555;28;20056;-60
2021/03/11 15:21:23;;;;;;;4.80;0.65;;;15.80;48.30;;;;;;5064412;28;20033;-59
2021/03/11 15:23:49;;;;;;;5.57;0.93;;;15.80;47.40;;;;;;5064450;28;20272;-60
2021/03/11 15:26:15;;;;;;;1.85;0.75;;;15.80;47.10;;;;;;5062841;28;20246;-59
2021/03/11 15:28:40;;;;;;;1.23;0.68;;;15.80;47.70;;;;;;5065819;28;20033;-60
2021/03/11 15:31:06;;;;;;;2.47;0.70;;;15.90;47.10;;;;;;5064923;28;20112;-59
2021/03/11 15:33:31;;;;;;;3.53;0.88;;;15.80;46.90;;;;;;5063990;28;20033;-60
2021/03/11 15:35:57;;;;;;;5.15;0.95;;;15.80;47.40;;;;;;5063819;28;20120;-59
2021/03/11 15:38:23;;;;;;;4.15;0.60;;;15.80;47.10;;;;;;5063334;28;20048;-60
2021/03/11 15:40:51;;;;;;;2.65;0.70;;;15.70;47.40;;;;;;5062828;28;20025;-59
2021/03/11 15:43:16;;;;;;;2.30;0.73;;;15.70;47.40;;;;;;5065268;28;20021;-59
2021/03/11 15:45:42;;;;;;;2.42;0.90;;;15.60;47.80;;;;;;5063760;28;20078;-59
2021/03/11 15:48:08;;;;;;;4.85;0.90;;;15.60;47.50;;;;;;5063358;28;20361;-60
2021/03/11 15:50:33;;;;;;;3.55;0.85;;;15.70;48.30;;;;;;5063337;28;20336;-59
2021/03/11 15:52:59;;;;;;;4.22;0.90;;;15.70;47.90;;;;;;5063510;28;20048;-59
2021/03/11 15:55:24;;;;;;;1.50;0.80;;;15.60;47.80;;;;;;5065471;28;20029;-59
2021/03/11 15:57:50;;;;;;;3.30;0.80;;;15.60;48.20;;;;;;5064002;28;20220;-59
2021/03/11 16:00:16;;;;;;;1.70;0.80;;;15.40;48.50;;;;;;5050040;28;20037;-60
2021/03/11 16:02:42;;;;;;;1.20;0.75;;;15.50;48.10;;;;;;5064873;28;20017;-60
2021/03/11 16:05:08;;;;;;;3.72;1.00;;;15.50;48.60;;;;;;5047496;28;20092;-59
2021/03/11 16:07:34;;;;;;;2.40;0.77;;;15.40;49.60;;;;;;5043143;28;20044;-59
2021/03/11 16:10:01;;;;;;;4.90;0.88;;;15.30;48.70;;;;;;5049890;28;20228;-60
2021/03/11 16:12:26;;;;;;;3.88;0.80;;;15.30;49.80;;;;;;5063148;28;20037;-59
2021/03/11 16:14:52;;;;;;;2.30;0.65;;;15.30;49.00;;;;;;5065124;28;20043;-60
2021/03/11 16:17:17;;;;;;;3.72;0.85;;;15.20;49.60;;;;;;5063173;28;20102;-59
2021/03/11 16:19:43;;;;;;;3.35;1.00;;;15.20;49.50;;;;;;5063098;28;20198;-59
2021/03/11 16:22:13;;;;;;;1.27;0.60;;;15.10;49.40;;;;;;5053861;28;20332;-59
2021/03/11 16:24:39;;;;;;;1.83;0.77;;;15.10;50.00;;;;;;5041555;28;20037;-60
2021/03/11 16:27:06;;;;;;;1.75;0.70;;;15.10;49.70;;;;;;5044441;28;20135;-60
2021/03/11 16:29:32;;;;;;;5.03;1.10;;;14.90;49.40;;;;;;5043052;28;20029;-60
2021/03/11 16:31:57;;;;;;;1.40;0.60;;;15.00;48.80;;;;;;5041900;28;20048;-59
2021/03/11 16:34:23;;;;;;;3.05;1.00;;;14.90;49.60;;;;;;5042800;28;20333;-60
2021/03/11 16:36:49;;;;;;;3.33;0.75;;;14.90;48.70;;;;;;5042845;28;20100;-59
2021/03/11 16:39:14;;;;;;;1.38;0.60;;;14.90;48.70;;;;;;5042412;28;20033;-59
2021/03/11 16:41:40;;;;;;;7.03;0.80;;;14.90;48.70;;;;;;5044783;28;20033;-59
2021/03/11 16:44:07;;;;;;;3.65;0.70;;;14.90;48.80;;;;;;5042482;28;20048;-59
2021/03/11 16:46:32;;;;;;;3.00;0.55;;;14.80;49.50;;;;;;5053860;28;20075;-60
2021/03/11 16:48:58;;;;;;;2.05;0.68;;;14.80;49.30;;;;;;5062663;28;20037;-60
2021/03/11 16:51:24;;;;;;;1.80;0.68;;;14.80;49.90;;;;;;5060553;28;20386;-60
2021/03/11 16:53:50;;;;;;;3.42;0.93;;;14.80;49.10;;;;;;5044374;28;20029;-60
2021/03/11 16:56:15;;;;;;;2.53;1.00;;;14.80;49.60;;;;;;5041334;28;20048;-60
2021/03/11 16:58:41;;;;;;;1.40;0.70;;;14.70;49.70;;;;;;5042229;28;20038;-60
2021/03/11 17:01:06;;;;;;;2.30;0.68;;;14.70;49.80;;;;;;5042178;28;20042;-59
2021/03/11 17:03:32;;;;;;;2.95;0.70;;;14.60;49.90;;;;;;5042422;28;20041;-59
2021/03/11 17:05:57;;;;;;;2.35;0.70;;;14.60;50.40;;;;;;5044310;28;20339;-59
2021/03/11 17:08:23;;;;;;;2.78;0.82;;;14.50;51.10;;;;;;5042888;28;20104;-60
2021/03/11 17:10:48;;;;;;;2.83;0.80;;;14.40;53.10;;;;;;5055806;28;20108;-60
2021/03/11 17:13:14;;;;;;;0.93;0.60;;;14.40;52.70;;;;;;5062343;28;20029;-60
2021/03/11 17:15:39;;;;;;;3.22;1.10;;;14.40;53.30;;;;;;5062092;28;20052;-59
2021/03/11 17:18:06;;;;;;;1.75;0.75;;;14.40;54.00;;;;;;5063948;28;20058;-60
2021/03/11 17:20:32;;;;;;;3.17;0.77;;;14.30;54.60;;;;;;5062213;28;20037;-59
2021/03/11 17:22:57;;;;;;;2.42;0.77;;;14.20;55.70;;;;;;5062545;28;20036;-60
2021/03/11 17:25:23;;;;;;;2.60;0.63;;;14.10;57.30;;;;;;5062285;28;20269;-59
2021/03/11 17:27:48;;;;;;;2.88;0.80;;;14.00;57.60;;;;;;5062423;28;20061;-60
2021/03/11 17:30:14;;;;;;;1.50;0.80;;;14.00;57.80;;;;;;5061778;28;20029;-60
2021/03/11 17:32:40;;;;;;;2.60;0.80;;;14.00;57.90;;;;;;5063652;28;20037;-60
2021/03/11 17:35:08;;;;;;;2.08;0.80;;;13.90;58.20;;;;;;5046078;28;20033;-59
2021/03/11 17:37:33;;;;;;;2.90;0.70;;;13.90;58.20;;;;;;5053421;28;20094;-60
2021/03/11 17:39:59;;;;;;;0.85;0.68;;;13.80;57.40;;;;;;5061971;28;20057;-60
2021/03/11 17:42:27;;;;;;;1.15;0.70;;;13.70;57.60;;;;;;5061897;28;20079;-59
2021/03/11 17:44:54;;;;;;;1.27;0.60;;;13.80;57.30;;;;;;5063709;28;20029;-60
2021/03/11 17:47:19;;;;;;;2.20;1.10;;;13.70;57.70;;;;;;5062311;28;20301;-59
2021/03/11 17:49:45;;;;;;;1.80;0.82;;;13.60;57.50;;;;;;5061131;28;20087;-60
2021/03/11 17:52:10;;;;;;;0.85;0.60;;;13.60;57.80;;;;;;5062237;28;20029;-60
2021/03/11 17:54:36;;;;;;;1.30;0.70;;;13.60;57.40;;;;;;5061901;28;20087;-60
2021/03/11 17:57:01;;;;;;;2.63;0.80;;;13.50;57.70;;;;;;5063606;28;20028;-60
2021/03/11 17:59:27;;;;;;;4.70;0.70;;;13.60;58.10;;;;;;5062148;28;20033;-60
2021/03/11 18:01:53;;;;;;;3.00;0.90;;;13.50;58.00;;;;;;5062212;28;20037;-60
2021/03/11 18:04:19;;;;;;;0.95;0.60;;;13.50;58.60;;;;;;5065546;28;20032;-59
2021/03/11 18:06:44;;;;;;;1.23;0.70;;;13.50;59.10;;;;;;5060771;28;20033;-60
2021/03/11 18:09:10;;;;;;;1.10;0.80;;;13.40;59.70;;;;;;5047333;28;20053;-59
2021/03/11 18:11:35;;;;;;;1.67;0.88;;;13.40;60.00;;;;;;5045584;28;20304;-60
2021/03/11 18:14:04;;;;;;;7.65;1.23;;;13.40;60.00;;;;;;5060836;28;20041;-60
2021/03/11 18:16:29;;;;;;;2.30;1.10;;;13.30;60.10;;;;;;5065527;28;20041;-59
2021/03/11 18:18:55;;;;;;;1.90;0.98;;;13.30;60.40;;;;;;5065397;28;20067;-60
2021/03/11 18:21:20;;;;;;;3.28;1.20;;;13.30;60.70;;;;;;5065413;28;20032;-60
2021/03/11 18:23:46;;;;;;;1.90;0.90;;;13.20;61.40;;;;;;5067379;28;20296;-60
2021/03/11 18:26:11;;;;;;;2.60;0.80;;;13.20;62.20;;;;;;5065104;28;20033;-60
2021/03/11 18:28:37;;;;;;;2.28;0.98;;;13.30;63.20;;;;;;5064739;28;20040;-60
2021/03/11 18:31:02;;;;;;;3.88;1.10;;;13.10;63.90;;;;;;5063356;28;20043;-59
2021/03/11 18:33:28;;;;;;;3.78;1.30;;;13.20;65.00;;;;;;5065026;28;20063;-59
2021/03/11 18:35:53;;;;;;;3.88;1.30;;;13.00;66.80;;;;;;5066508;28;20037;-61
2021/03/11 18:38:22;;;;;;;2.50;0.95;;;12.90;68.10;;;;;;5080466;28;20029;-60
2021/03/11 18:40:48;;;;;;;3.33;0.75;;;12.80;68.30;;;;;;5064616;28;20033;-60
2021/03/11 18:43:14;;;;;;;2.08;0.73;;;12.60;68.60;;;;;;5064414;28;20194;-59
2021/03/11 18:45:39;;;;;;;1.08;0.50;;;12.40;69.00;;;;;;5064881;28;20032;-58
2021/03/11 18:48:06;;;;;;;1.92;0.70;;;12.40;68.90;;;;;;5066710;28;20048;-59
2021/03/11 18:50:32;;;;;;;1.73;0.70;;;12.30;68.90;;;;;;5063781;28;20037;-59
2021/03/11 18:52:57;;;;;;;2.58;0.70;;;12.30;69.10;;;;;;5065098;28;20067;-59
2021/03/11 18:55:23;;;;;;;2.45;0.88;;;12.10;69.70;;;;;;5063835;28;20103;-59
2021/03/11 18:57:48;;;;;;;1.95;0.80;;;12.00;70.20;;;;;;5059342;28;20072;-60
2021/03/11 19:00:19;;;;;;;3.35;0.90;;;12.00;70.40;;;;;;5007937;23;20130;-59
2021/03/11 19:02:45;;;;;;;2.60;0.77;;;11.90;70.80;;;;;;5026342;28;20104;-59
2021/03/11 19:05:11;;;;;;;3.83;1.00;;;11.90;71.30;;;;;;5023776;28;20072;-59
2021/03/11 19:07:36;;;;;;;3.47;1.23;;;11.80;71.70;;;;;;5009931;28;20041;-59
2021/03/11 19:10:03;;;;;;;4.22;1.20;;;11.70;71.80;;;;;;5027888;28;20092;-59
2021/03/11 19:12:29;;;;;;;2.03;0.90;;;11.80;72.00;;;;;;5024782;28;20030;-61
2021/03/11 19:14:54;;;;;;;2.53;1.00;;;11.60;72.40;;;;;;5026036;28;20335;-59
2021/03/11 19:17:20;;;;;;;3.58;0.95;;;11.60;72.50;;;;;;5024905;28;20352;-59
2021/03/11 19:19:46;;;;;;;3.22;1.45;;;11.70;72.30;;;;;;5023595;28;20083;-59
2021/03/11 19:22:11;;;;;;;3.35;1.10;;;11.60;72.50;;;;;;5024508;28;20097;-59
2021/03/11 19:24:37;;;;;;;2.35;1.10;;;11.60;73.00;;;;;;5024440;28;20033;-59
2021/03/11 19:27:02;;;;;;;1.58;1.10;;;11.50;73.60;;;;;;5026129;28;20045;-59
2021/03/11 19:29:28;;;;;;;1.60;0.90;;;11.40;73.40;;;;;;5024623;28;20053;-59
2021/03/11 19:31:53;;;;;;;3.58;0.93;;;11.40;73.40;;;;;;5024474;28;20157;-59
2021/03/11 19:34:19;;;;;;;1.55;1.10;;;11.40;73.50;;;;;;5024495;28;20084;-59
2021/03/11 19:36:45;;;;;;;9.35;1.35;;;11.30;73.90;;;;;;5023983;28;20044;-59
2021/03/11 19:39:12;;;;;;;2.35;1.10;;;11.30;74.00;;;;;;5025953;28;20034;-59
2021/03/11 19:41:38;;;;;;;2.38;1.00;;;11.20;74.20;;;;;;5024336;28;20080;-59
2021/03/11 19:44:04;;;;;;;1.98;0.93;;;11.20;74.20;;;;;;5037318;28;20224;-59
2021/03/11 19:46:29;;;;;;;2.85;0.73;;;11.10;74.10;;;;;;5043627;28;20104;-59
2021/03/11 19:48:55;;;;;;;3.15;0.73;;;11.00;73.50;;;;;;5043771;28;20093;-59
2021/03/11 19:51:20;;;;;;;2.50;0.60;;;10.90;73.90;;;;;;5043815;28;20052;-59
2021/03/11 19:53:46;;;;;;;2.53;0.68;;;10.80;74.70;;;;;;5045450;28;20033;-59
2021/03/11 19:56:11;;;;;;;4.25;0.63;;;10.70;75.30;;;;;;5043920;28;20037;-60
2021/03/11 19:58:37;;;;;;;1.85;0.50;;;10.60;75.40;;;;;;5031694;28;20030;-59
2021/03/11 20:01:02;;;;;;;3.05;0.52;;;10.50;75.30;;;;;;5030655;28;20037;-61
2021/03/11 20:03:28;;;;;;;1.40;1.00;;;10.50;76.30;;;;;;5043588;28;20024;-59
2021/03/11 20:05:53;;;;;;;2.80;0.60;;;10.50;76.30;;;;;;5045234;28;20027;-59
2021/03/11 20:08:19;;;;;;;1.95;0.70;;;10.40;76.40;;;;;;4984656;28;20045;-59
2021/03/11 20:10:46;;;;;;;1.75;0.50;;;10.40;77.20;;;;;;5026792;28;20053;-58
2021/03/11 20:13:12;;;;;;;1.27;0.52;;;10.30;76.60;;;;;;5043224;28;20276;-59
2021/03/11 20:15:38;;;;;;;2.13;1.00;;;10.40;76.90;;;;;;5043132;28;20037;-60
2021/03/11 20:18:03;;;;;;;2.33;0.63;;;10.30;77.00;;;;;;5043111;28;20038;-58
2021/03/11 20:20:31;;;;;;;1.58;0.95;;;10.40;77.40;;;;;;5044144;28;20227;-60
2021/03/11 20:22:57;;;;;;;4.57;0.55;;;10.40;77.40;;;;;;5043365;28;20053;-59
2021/03/11 20:25:23;;;;;;;1.75;0.40;;;10.30;77.40;;;;;;5042860;28;20084;-59
2021/03/11 20:27:50;;;;;;;0.93;0.60;;;10.20;77.20;;;;;;5042831;28;20040;-59
2021/03/11 20:30:16;;;;;;;1.65;0.50;;;10.30;76.80;;;;;;5036886;28;20034;-59
2021/03/11 20:32:41;;;;;;;2.05;0.52;;;10.20;76.70;;;;;;5024679;28;20213;-59
2021/03/11 20:35:08;;;;;;;4.90;0.50;;;10.20;76.60;;;;;;5044436;28;20056;-59
2021/03/11 20:37:33;;;;;;;0.45;0.40;;;10.20;76.40;;;;;;5041847;28;20233;-59
2021/03/11 20:39:59;;;;;;;0.45;0.40;;;10.20;76.80;;;;;;5042626;28;20033;-60
2021/03/11 20:42:24;;;;;;;1.02;0.45;;;10.20;76.30;;;;;;5041612;28;20045;-59
2021/03/11 20:44:50;;;;;;;1.63;0.50;;;10.10;76.30;;;;;;5042589;28;20072;-59
2021/03/11 20:47:15;;;;;;;1.30;0.45;;;10.00;76.80;;;;;;5044534;28;20021;-59
2021/03/11 20:49:41;;;;;;;0.93;0.50;;;9.90;76.30;;;;;;5043016;28;20038;-59
2021/03/11 20:52:07;;;;;;;1.67;0.50;;;9.90;74.90;;;;;;5042722;28;20043;-59
2021/03/11 20:54:33;;;;;;;0.98;0.50;;;10.00;74.70;;;;;;5042701;28;20319;-59
2021/03/11 20:56:59;;;;;;;1.40;0.43;;;10.00;74.40;;;;;;5042490;28;20043;-59
2021/03/11 20:59:24;;;;;;;0.70;0.30;;;9.90;73.60;;;;;;5043874;28;20340;-59
2021/03/11 21:01:50;;;;;;;1.10;0.45;;;9.90;72.30;;;;;;5042556;28;20259;-59
2021/03/11 21:04:15;;;;;;;0.93;0.40;;;9.60;72.10;;;;;;5042648;28;20389;-58
2021/03/11 21:06:41;;;;;;;1.13;0.40;;;9.70;72.10;;;;;;5042422;28;20041;-58
2021/03/11 21:09:07;;;;;;;0.80;0.43;;;9.70;71.40;;;;;;5042377;28;20040;-58
2021/03/11 21:11:33;;;;;;;0.90;0.40;;;9.50;70.00;;;;;;5042219;28;20037;-59
2021/03/11 21:13:59;;;;;;;0.68;0.40;;;9.60;70.90;;;;;;5043926;28;20040;-58
2021/03/11 21:16:24;;;;;;;2.83;0.50;;;9.60;70.10;;;;;;5042362;28;20038;-58
2021/03/11 21:18:50;;;;;;;1.23;0.50;;;9.50;69.90;;;;;;5031815;28;20038;-58
2021/03/11 21:21:15;;;;;;;1.38;0.40;;;9.40;70.80;;;;;;5028773;28;20030;-58
2021/03/11 21:23:41;;;;;;;1.05;0.50;;;9.40;70.50;;;;;;5042372;28;20076;-58
2021/03/11 21:26:07;;;;;;;1.63;0.43;;;9.50;71.20;;;;;;5044108;28;20075;-58
2021/03/11 21:28:34;;;;;;;1.98;0.50;;;9.40;70.80;;;;;;5042956;28;20037;-58
2021/03/11 21:30:59;;;;;;;2.90;0.52;;;9.40;71.00;;;;;;5042429;28;20061;-58
2021/03/11 21:33:25;;;;;;;4.28;1.15;;;9.40;71.20;;;;;;5042173;28;20096;-58
2021/03/11 21:35:51;;;;;;;0.65;0.40;;;9.40;71.50;;;;;;5038969;28;20053;-59
2021/03/11 21:38:16;;;;;;;3.28;0.60;;;9.40;71.70;;;;;;5026057;28;20308;-58
2021/03/11 21:40:42;;;;;;;1.88;0.40;;;9.40;71.60;;;;;;5044623;28;20048;-58
2021/03/11 21:43:08;;;;;;;2.30;0.60;;;9.40;71.90;;;;;;5046197;28;20041;-59
2021/03/11 21:45:33;;;;;;;1.52;0.52;;;9.40;72.10;;;;;;5046035;28;20037;-58
2021/03/11 21:47:59;;;;;;;2.67;0.60;;;9.40;71.80;;;;;;5046541;28;20252;-58
2021/03/11 21:50:36;;;;;;;2.13;0.50;;;9.40;71.90;;;;;;5048135;28;20324;-58
2021/03/11 21:53:02;;;;;;;2.05;0.60;;;9.40;71.50;;;;;;5046889;28;20236;-58
2021/03/11 21:55:28;;;;;;;1.55;0.50;;;9.40;71.90;;;;;;5046112;28;20040;-59
2021/03/11 21:57:53;;;;;;;1.95;0.50;;;9.40;72.10;;;;;;5045533;28;20041;-58
2021/03/11 22:00:24;;;;;;;1.30;0.43;;;9.50;71.90;;;;;;5045281;28;20044;-58
2021/03/11 22:02:50;;;;;;;2.20;0.57;;;9.50;71.70;;;;;;5042922;28;20034;-59
2021/03/11 22:05:16;;;;;;;5.25;0.70;;;9.60;72.00;;;;;;5027699;28;20100;-59
2021/03/11 22:07:42;;;;;;;1.05;0.50;;;9.50;71.80;;;;;;5044238;28;20044;-60
2021/03/11 22:10:08;;;;;;;2.22;0.63;;;9.50;72.00;;;;;;5044851;28;20150;-59
2021/03/11 22:12:33;;;;;;;3.78;0.50;;;9.60;72.40;;;;;;5045530;28;20037;-60
2021/03/11 22:14:59;;;;;;;2.28;0.57;;;9.70;72.00;;;;;;5045623;28;20033;-59
2021/03/11 22:17:25;;;;;;;1.77;0.55;;;9.60;72.20;;;;;;5047318;28;20064;-58
2021/03/11 22:19:50;;;;;;;2.40;0.60;;;9.50;73.00;;;;;;5045777;28;20396;-59
2021/03/11 22:22:16;;;;;;;2.22;0.50;;;9.50;72.90;;;;;;5045755;28;20029;-58
2021/03/11 22:24:41;;;;;;;4.70;0.80;;;9.50;72.70;;;;;;5045453;28;20038;-59
2021/03/11 22:27:07;;;;;;;2.10;0.90;;;9.60;72.20;;;;;;5045527;28;20031;-59
2021/03/11 22:29:32;;;;;;;1.73;0.60;;;9.60;71.60;;;;;;5045190;28;20033;-59
2021/03/11 22:31:58;;;;;;;1.17;0.60;;;9.50;71.40;;;;;;5046753;28;20029;-59
2021/03/11 22:34:23;;;;;;;1.58;0.50;;;9.50;71.90;;;;;;5045516;28;20033;-59
2021/03/11 22:36:49;;;;;;;1.92;0.65;;;9.50;71.70;;;;;;5045465;28;20045;-58
2021/03/11 22:39:15;;;;;;;1.98;0.70;;;9.50;71.40;;;;;;5045283;28;20049;-59
2021/03/11 22:41:40;;;;;;;2.47;0.60;;;9.50;71.70;;;;;;5045057;28;20088;-59
2021/03/11 22:44:06;;;;;;;3.85;0.60;;;9.50;71.70;;;;;;5046630;28;20036;-58
2021/03/11 22:46:32;;;;;;;2.33;0.75;;;9.60;71.80;;;;;;5045744;28;20041;-58
2021/03/11 22:48:58;;;;;;;2.92;0.70;;;9.50;71.90;;;;;;5044762;28;20037;-58
2021/03/11 22:51:23;;;;;;;1.40;0.50;;;9.50;72.30;;;;;;5045103;28;20405;-58
2021/03/11 22:53:49;;;;;;;2.00;0.60;;;9.50;72.20;;;;;;5045481;28;20033;-58
2021/03/11 22:56:15;;;;;;;1.25;0.60;;;9.50;71.90;;;;;;5046525;28;20029;-58
2021/03/11 22:58:40;;;;;;;2.50;0.50;;;9.40;71.90;;;;;;5045537;28;20101;-59
2021/03/11 23:01:06;;;;;;;2.63;0.60;;;9.40;72.10;;;;;;5044595;28;20236;-59
2021/03/11 23:03:31;;;;;;;2.55;0.77;;;9.40;71.50;;;;;;5044890;28;20213;-59
2021/03/11 23:05:57;;;;;;;1.33;0.50;;;9.40;71.80;;;;;;5044678;28;20096;-59
2021/03/11 23:08:23;;;;;;;2.35;0.95;;;9.40;71.40;;;;;;5046482;28;20033;-58
2021/03/11 23:10:59;;;;;;;1.38;0.50;;;9.30;71.80;;;;;;5045184;28;20034;-58
2021/03/11 23:13:25;;;;;;;0.95;0.50;;;9.30;71.60;;;;;;5044980;28;20252;-59
2021/03/11 23:15:50;;;;;;;0.50;0.40;;;9.30;71.80;;;;;;5044805;28;20038;-58
2021/03/11 23:18:16;;;;;;;2.05;0.60;;;9.40;72.10;;;;;;5044852;28;20075;-59
2021/03/11 23:20:42;;;;;;;1.85;0.80;;;9.30;71.50;;;;;;5044645;28;20327;-58
2021/03/11 23:23:11;;;;;;;0.50;0.40;;;9.20;70.20;;;;;;5046154;28;20033;-59
2021/03/11 23:25:37;;;;;;;1.88;0.55;;;9.20;70.50;;;;;;5044673;28;20057;-59
2021/03/11 23:28:06;;;;;;;0.65;0.43;;;9.10;69.10;;;;;;5044744;28;20034;-59
2021/03/11 23:30:36;;;;;;;0.50;0.40;;;8.90;68.80;;;;;;5044269;28;20095;-59
2021/03/11 23:33:02;;;;;;;0.73;0.30;;;9.00;68.60;;;;;;5044612;28;20034;-58
2021/03/11 23:35:28;;;;;;;0.45;0.30;;;8.80;68.40;;;;;;5045791;28;20059;-59
2021/03/11 23:37:53;;;;;;;0.30;0.30;;;8.70;68.00;;;;;;5044494;28;20075;-59
2021/03/11 23:40:19;;;;;;;0.50;0.30;;;8.50;68.30;;;;;;5044039;28;20360;-59
2021/03/11 23:42:45;;;;;;;0.90;0.28;;;8.50;68.50;;;;;;5042856;28;20096;-59
2021/03/11 23:45:11;;;;;;;1.00;0.40;;;8.30;67.90;;;;;;5042801;28;20033;-58
2021/03/11 23:47:36;;;;;;;0.50;0.30;;;8.30;69.90;;;;;;5044077;28;20371;-59
2021/03/11 23:50:07;;;;;;;0.60;0.30;;;8.00;70.10;;;;;;5045712;28;20017;-58
2021/03/11 23:52:33;;;;;;;0.30;0.30;;;7.90;71.10;;;;;;5042771;28;20121;-59
2021/03/11 23:54:58;;;;;;;0.98;0.35;;;7.60;71.50;;;;;;5044044;28;20240;-58
2021/03/11 23:57:24;;;;;;;0.40;0.40;;;7.70;72.10;;;;;;5043505;28;20057;-59
2021/03/11 23:59:51;;;;;;;0.75;0.35;;;7.80;72.80;;;;;;5042813;28;21085;-58
